Time;durP1;ratioP1;P1;durP2;ratioP2;P2;SDS_P1;SDS_P2;PMS_P1;PMS_P2;Temp;Humidity;BMP_temperature;BMP_pressure;BME280_temperature;BME280_humidity;BME280_pressure;Samples;Min_cycle;Max_cycle;Signal;HPM_P1;HPM_P2
2023/01/31 00:00:48;;;;;;;;;72.50;56.00;;;;;6.44;52.53;99266.03;5126674;27;8843;-78
2023/01/31 00:03:25;;;;;;;;;70.75;57.25;;;;;6.51;53.00;99259.22;5128699;27;8881;-78
2023/01/31 00:05:54;;;;;;;;;75.00;61.00;;;;;6.58;52.46;99276.56;5111568;28;8896;-76
2023/01/31 00:08:23;;;;;;;;;72.25;55.75;;;;;6.69;52.68;99266.34;5109949;28;8833;-78
2023/01/31 00:10:52;;;;;;;;;74.25;59.25;;;;;6.76;52.26;99262.06;5110106;28;8857;-79
2023/01/31 00:13:20;;;;;;;;;71.50;60.00;;;;;6.49;52.83;99262.66;5109982;28;9653;-78
2023/01/31 00:15:49;;;;;;;;;72.25;59.25;;;;;6.65;52.07;99259.34;5119087;27;8880;-80
2023/01/31 00:18:18;;;;;;;;;77.00;57.75;;;;;6.73;52.37;99255.16;5131075;27;9669;-79
2023/01/31 00:20:48;;;;;;;;;69.50;55.00;;;;;6.56;53.05;99254.97;5130448;27;8850;-78
2023/01/31 00:23:17;;;;;;;;;75.25;60.00;;;;;6.20;54.05;99269.22;5112968;27;8846;-78
2023/01/31 00:25:46;;;;;;;;;73.00;58.75;;;;;6.44;53.04;99260.84;5113210;27;8862;-78
2023/01/31 00:28:15;;;;;;;;;71.75;57.00;;;;;6.36;52.65;99272.84;5113404;27;8823;-78
2023/01/31 00:30:43;;;;;;;;;72.25;58.25;;;;;6.30;53.46;99274.53;5130179;27;8838;-79
2023/01/31 00:33:12;;;;;;;;;70.25;56.25;;;;;6.38;53.11;99280.66;5111935;27;8971;-80
2023/01/31 00:35:41;;;;;;;;;73.75;56.25;;;;;6.37;53.55;99274.59;5130168;27;8858;-77
2023/01/31 00:38:15;;;;;;;;;66.00;53.75;;;;;6.18;53.99;99273.50;5113292;27;9587;-78
2023/01/31 00:40:52;;;;;;;;;70.25;54.25;;;;;6.46;53.97;99285.91;5113109;27;9615;-77
2023/01/31 00:43:21;;;;;;;;;47.75;39.75;;;;;6.56;53.17;99273.09;5077990;27;9994;-78
2023/01/31 00:45:50;;;;;;;;;78.50;59.50;;;;;6.58;53.56;99267.94;5113047;27;8930;-77
2023/01/31 00:48:19;;;;;;;;;72.00;58.00;;;;;6.64;52.74;99271.44;5073627;27;8955;-79
2023/01/31 00:50:48;;;;;;;;;70.75;55.25;;;;;6.86;52.73;99270.78;5109765;28;8868;-78
2023/01/31 00:53:22;;;;;;;;;69.75;56.75;;;;;7.08;51.89;99274.47;5110955;28;8844;-78
2023/01/31 00:55:52;;;;;;;;;68.75;57.25;;;;;6.88;52.50;99277.75;5092435;28;8972;-76
2023/01/31 00:58:22;;;;;;;;;72.50;57.25;;;;;6.69;53.08;99279.28;5109087;27;8849;-77
2023/01/31 01:00:51;;;;;;;;;57.75;45.25;;;;;7.05;52.68;99277.03;5109260;28;8841;-79
2023/01/31 01:03:20;;;;;;;;;64.50;52.00;;;;;6.27;53.92;99277.91;5086768;28;8853;-78
2023/01/31 01:05:48;;;;;;;;;72.00;55.25;;;;;6.80;53.31;99259.50;5086053;28;8861;-79
2023/01/31 01:08:19;;;;;;;;;62.00;50.00;;;;;6.62;53.35;99260.19;5071548;28;9006;-78
2023/01/31 01:10:47;;;;;;;;;71.00;57.00;;;;;6.55;54.18;99254.94;5087608;28;8943;-76
2023/01/31 01:13:16;;;;;;;;;68.50;56.50;;;;;6.41;53.67;99263.44;5070834;28;8858;-78
2023/01/31 01:15:45;;;;;;;;;66.00;53.00;;;;;6.56;52.68;99262.72;5053954;28;8842;-78
2023/01/31 01:18:15;;;;;;;;;63.50;54.00;;;;;6.71;52.92;99272.41;5087315;28;8841;-79
2023/01/31 01:20:43;;;;;;;;;58.00;46.25;;;;;6.67;53.39;99265.41;5064214;28;8875;-77
2023/01/31 01:23:13;;;;;;;;;37.00;30.50;;;;;6.55;53.24;99286.88;5058030;28;8936;-78
2023/01/31 01:25:44;;;;;;;;;67.00;53.25;;;;;6.61;53.91;99273.13;5066743;28;8881;-79
2023/01/31 01:28:13;;;;;;;;;59.25;50.50;;;;;6.72;53.81;99270.66;5050323;28;8848;-78
2023/01/31 01:30:42;;;;;;;;;64.50;52.25;;;;;6.29;54.89;99277.94;5033736;28;8894;-78
2023/01/31 01:33:11;;;;;;;;;66.25;53.00;;;;;6.38;54.99;99278.06;5067295;28;8993;-77
2023/01/31 01:35:40;;;;;;;;;71.75;56.50;;;;;6.36;54.26;99284.94;5036569;28;8834;-77
2023/01/31 01:38:09;;;;;;;;;68.75;55.25;;;;;6.25;55.36;99280.47;5035798;28;8843;-76
2023/01/31 01:40:38;;;;;;;;;67.75;52.75;;;;;6.45;55.16;99287.66;5069957;28;8867;-78
2023/01/31 01:43:11;;;;;;;;;68.00;54.50;;;;;6.50;55.40;99282.50;5053656;28;8851;-78
2023/01/31 01:45:40;;;;;;;;;63.50;50.25;;;;;6.57;54.46;99266.19;5052794;28;9002;-77
2023/01/31 01:48:16;;;;;;;;;66.50;54.50;;;;;6.97;53.87;99264.84;5066404;28;8852;-78
2023/01/31 01:50:49;;;;;;;;;65.75;51.75;;;;;6.82;54.26;99269.91;5032729;28;8905;-77
2023/01/31 01:53:20;;;;;;;;;63.25;50.25;;;;;6.83;54.06;99271.66;5041917;28;8991;-77
2023/01/31 01:55:53;;;;;;;;;60.25;51.50;;;;;6.79;54.28;99269.88;5087438;28;8876;-80
2023/01/31 01:58:29;;;;;;;;;64.25;52.00;;;;;7.12;53.73;99261.53;5095559;28;8839;-79
2023/01/31 02:00:59;;;;;;;;;64.75;51.50;;;;;6.75;54.13;99268.13;5071298;28;9645;-77
2023/01/31 02:03:28;;;;;;;;;57.00;47.25;;;;;6.75;54.64;99266.38;5087601;28;8900;-79
2023/01/31 02:06:04;;;;;;;;;69.00;56.00;;;;;7.04;54.00;99263.19;5070639;28;8968;-78
2023/01/31 02:08:35;;;;;;;;;61.50;50.75;;;;;7.22;53.34;99272.84;5050518;28;8851;-79
2023/01/31 02:11:08;;;;;;;;;64.00;46.50;;;;;7.02;53.84;99267.50;5069235;28;8997;-77
2023/01/31 02:13:41;;;;;;;;;50.00;45.00;;;;;6.90;54.38;99268.28;5053354;28;8924;-78
2023/01/31 02:16:15;;;;;;;;;58.50;47.00;;;;;6.79;54.77;99277.66;5029502;28;8885;-78
2023/01/31 02:18:45;;;;;;;;;63.25;51.25;;;;;6.41;55.44;99278.09;5029661;28;8854;-79
2023/01/31 02:22:01;;;;;;;;;60.00;48.25;;;;;6.81;55.65;99273.34;5012903;28;8866;-77
2023/01/31 02:25:01;;;;;;;;;52.25;46.00;;;;;7.16;54.62;99272.81;5045030;28;8842;-78
2023/01/31 02:27:45;;;;;;;;;53.25;46.00;;;;;7.39;54.29;99268.69;5046332;28;8854;-78
2023/01/31 02:30:42;;;;;;;;;56.25;45.50;;;;;7.29;54.22;99272.06;5011846;28;8862;-80
2023/01/31 02:33:21;;;;;;;;;61.75;47.50;;;;;7.46;53.63;99259.22;5026725;28;8858;-78
2023/01/31 02:35:59;;;;;;;;;54.00;46.25;;;;;7.38;53.09;99263.50;5008447;28;8862;-76
2023/01/31 02:38:40;;;;;;;;;46.50;43.50;;;;;7.38;54.11;99266.94;5027634;28;9607;-77
2023/01/31 02:41:17;;;;;;;;;44.25;40.75;;;;;7.46;54.23;99263.53;5041468;28;8891;-80
2023/01/31 02:46:51;;;;;;;;;49.25;41.00;;;;;7.02;54.92;99277.88;5029845;28;8883;-81
2023/01/31 02:49:36;;;;;;;;;39.00;36.00;;;;;7.38;53.92;99273.88;4991188;28;8860;-79
2023/01/31 02:52:20;;;;;;;;;45.00;40.50;;;;;7.34;53.81;99278.16;5007722;28;8852;-79
2023/01/31 02:57:57;;;;;;;;;42.75;38.50;;;;;7.02;54.32;99280.47;5061903;28;8952;-77
2023/01/31 03:00:26;;;;;;;;;37.00;33.00;;;;;7.29;54.38;99279.84;5047250;28;8868;-79
2023/01/31 03:02:55;;;;;;;;;48.50;40.25;;;;;6.77;56.08;99284.56;5063551;28;8856;-77
2023/01/31 03:05:26;;;;;;;;;30.25;27.00;;;;;6.93;54.98;99282.97;5046879;28;9045;-75
2023/01/31 03:07:59;;;;;;;;;40.00;37.75;;;;;6.88;55.57;99287.22;5030808;28;8856;-76
2023/01/31 03:10:45;;;;;;;;;36.75;32.25;;;;;7.16;54.78;99289.22;5024084;28;9002;-77
2023/01/31 03:13:40;;;;;;;;;37.25;34.25;;;;;6.85;56.17;99284.63;5045248;28;9047;-77
2023/01/31 03:19:16;;;;;;;;;35.75;34.75;;;;;6.76;55.51;99290.56;5037429;28;9021;-76
2023/01/31 03:21:51;;;;;;;;;34.60;33.20;;;;;6.90;56.12;99286.41;5084644;28;8863;-77
2023/01/31 03:24:25;;;;;;;;;30.80;30.80;;;;;7.02;55.94;99290.84;5086969;28;8836;-77
2023/01/31 03:26:57;;;;;;;;;40.25;35.75;;;;;7.10;55.60;99289.19;5086833;28;8875;-77
2023/01/31 03:29:29;;;;;;;;;40.50;33.75;;;;;7.21;55.69;99290.16;5087064;28;8934;-80
2023/01/31 03:32:04;;;;;;;;;29.00;26.80;;;;;5.91;59.26;99304.16;5103287;28;8983;-79
2023/01/31 03:34:34;;;;;;;;;32.20;30.20;;;;;6.33;58.46;99297.84;5020698;28;8857;-79
2023/01/31 03:37:13;;;;;;;;;28.20;25.20;;;;;6.46;58.63;99294.53;5101865;28;8859;-78
2023/01/31 03:39:56;;;;;;;;;35.60;30.60;;;;;6.44;58.68;99304.88;5103995;28;8852;-77
2023/01/31 03:42:33;;;;;;;;;32.80;28.80;;;;;6.59;58.38;99295.56;5100157;27;8854;-78
2023/01/31 03:45:09;;;;;;;;;34.80;30.20;;;;;6.50;58.22;99306.69;5125626;27;8851;-77
2023/01/31 03:47:41;;;;;;;;;33.60;31.60;;;;;6.40;58.51;99312.59;5109242;27;8932;-77
2023/01/31 03:50:16;;;;;;;;;31.60;28.00;;;;;6.04;60.36;99322.50;5125988;27;8857;-77
2023/01/31 03:52:54;;;;;;;;;29.00;27.50;;;;;5.43;62.29;99340.50;5093657;27;8859;-78
2023/01/31 03:55:33;;;;;;;;;34.50;28.00;;;;;5.21;63.39;99346.16;5109827;27;8957;-76
2023/01/31 03:58:04;;;;;;;;;27.60;27.40;;;;;5.52;62.21;99332.03;5078019;27;8993;-77
2023/01/31 04:00:39;;;;;;;;;29.75;29.25;;;;;5.30;63.66;99325.63;5110035;27;8842;-78
2023/01/31 04:03:15;;;;;;;;;26.75;23.75;;;;;5.89;61.78;99317.06;5109839;27;8965;-77
2023/01/31 04:05:45;;;;;;;;;28.00;28.00;;;;;5.57;62.44;99314.00;5105235;28;8880;-78
2023/01/31 04:08:16;;;;;;;;;30.00;28.00;;;;;5.63;62.25;99317.56;5106590;28;10032;-77
2023/01/31 04:10:51;;;;;;;;;37.00;32.25;;;;;6.08;60.96;99317.38;5089600;28;8942;-77
2023/01/31 04:13:20;;;;;;;;;39.75;33.00;;;;;6.24;60.41;99315.00;5096498;27;9010;-78
2023/01/31 04:15:49;;;;;;;;;19.50;17.75;;;;;6.23;60.36;99304.63;5109569;27;8850;-77
2023/01/31 04:18:18;;;;;;;;;35.00;33.00;;;;;6.63;58.91;99300.81;5110031;27;8846;-78
2023/01/31 04:20:47;;;;;;;;;30.80;26.00;;;;;6.45;58.32;99292.81;5122264;27;8924;-80
2023/01/31 04:23:18;;;;;;;;;31.75;28.25;;;;;6.38;58.97;99298.78;5106079;28;8899;-80
2023/01/31 04:25:47;;;;;;;;;30.60;27.20;;;;;6.09;60.15;99301.88;5106224;28;8971;-77
2023/01/31 04:28:15;;;;;;;;;34.75;29.25;;;;;5.74;60.61;99309.94;5106542;28;8883;-77
2023/01/31 04:30:44;;;;;;;;;29.25;28.75;;;;;5.41;61.80;99307.72;5105864;28;8872;-77
2023/01/31 04:33:13;;;;;;;;;37.25;31.75;;;;;5.38;61.76;99308.53;5106357;28;8837;-77
2023/01/31 04:35:42;;;;;;;;;31.00;26.75;;;;;5.80;60.70;99307.47;5106199;28;8856;-75
2023/01/31 04:38:10;;;;;;;;;37.00;31.75;;;;;5.78;60.54;99301.38;5090615;27;8864;-78
2023/01/31 04:40:41;;;;;;;;;30.75;25.50;;;;;5.81;59.77;99304.03;5109921;28;8849;-78
2023/01/31 04:43:09;;;;;;;;;31.40;26.60;;;;;5.73;60.65;99304.75;5109697;28;8856;-77
2023/01/31 04:45:38;;;;;;;;;32.00;28.25;;;;;5.88;59.70;99301.50;5092530;28;8880;-79
2023/01/31 04:48:07;;;;;;;;;29.00;24.00;;;;;5.47;61.28;99311.25;5111000;28;8860;-80
2023/01/31 04:50:36;;;;;;;;;33.75;29.75;;;;;5.70;60.50;99309.88;5121987;27;8857;-78
2023/01/31 04:53:07;;;;;;;;;29.50;25.00;;;;;5.80;60.23;99307.47;5109487;28;8868;-77
2023/01/31 04:55:36;;;;;;;;;23.75;22.75;;;;;5.43;61.21;99312.06;5110825;27;8867;-76
2023/01/31 04:58:06;;;;;;;;;30.50;30.50;;;;;5.80;60.47;99310.06;5130197;27;8854;-79
2023/01/31 05:00:35;;;;;;;;;33.00;29.25;;;;;5.69;60.79;99309.03;5131209;27;8854;-80
2023/01/31 05:03:04;;;;;;;;;43.25;32.00;;;;;5.94;60.04;99319.75;5111382;27;8858;-79
2023/01/31 05:05:33;;;;;;;;;31.75;28.25;;;;;5.70;60.96;99310.75;5115642;27;8891;-78
2023/01/31 05:08:04;;;;;;;;;29.50;26.50;;;;;5.72;61.15;99309.06;5112435;28;8849;-78
2023/01/31 05:10:36;;;;;;;;;34.75;28.00;;;;;5.75;60.78;99316.00;5110213;27;8860;-78
2023/01/31 05:13:06;;;;;;;;;34.00;29.50;;;;;5.85;60.40;99326.50;5088505;28;8996;-76
2023/01/31 05:15:35;;;;;;;;;36.75;29.25;;;;;6.32;58.83;99327.19;5050028;28;8839;-80
2023/01/31 05:18:04;;;;;;;;;36.00;35.25;;;;;5.89;60.20;99321.38;5033432;28;9114;-79
2023/01/31 05:20:38;;;;;;;;;37.50;31.25;;;;;6.12;59.24;99324.31;5050017;28;8867;-78
2023/01/31 05:23:07;;;;;;;;;38.00;30.50;;;;;6.36;59.17;99324.66;5066609;28;8863;-77
2023/01/31 05:25:37;;;;;;;;;27.50;26.25;;;;;6.34;58.18;99326.34;5069414;28;8856;-79
2023/01/31 05:28:07;;;;;;;;;16.75;14.50;;;;;6.23;58.88;99326.19;5050124;28;8933;-80
2023/01/31 05:30:37;;;;;;;;;32.75;29.50;;;;;6.63;57.43;99318.06;5000967;28;8873;-78
2023/01/31 05:33:06;;;;;;;;;29.00;24.75;;;;;6.23;57.58;99339.16;5033426;28;8871;-77
2023/01/31 05:35:34;;;;;;;;;33.25;30.00;;;;;6.34;58.72;99323.75;5050131;28;9112;-78
2023/01/31 05:38:03;;;;;;;;;51.25;45.50;;;;;6.66;57.38;99336.25;5069837;28;8879;-79
2023/01/31 05:40:32;;;;;;;;;41.25;34.25;;;;;6.70;57.26;99335.44;5086047;28;8980;-79
2023/01/31 05:43:01;;;;;;;;;28.80;26.00;;;;;6.91;56.92;99345.16;5085217;28;8861;-78
2023/01/31 05:45:32;;;;;;;;;34.50;32.50;;;;;6.94;56.03;99333.97;5069840;28;8848;-78
2023/01/31 05:48:01;;;;;;;;;35.50;33.75;;;;;6.77;57.14;99352.78;5103777;28;8966;-78
2023/01/31 05:50:30;;;;;;;;;29.50;28.25;;;;;6.82;56.28;99347.66;5070957;28;8936;-79
2023/01/31 05:53:09;;;;;;;;;34.25;30.75;;;;;6.79;56.26;99350.22;5038673;28;8882;-76
2023/01/31 05:55:39;;;;;;;;;30.60;25.80;;;;;6.50;56.79;99358.47;5109273;28;8949;-78
2023/01/31 05:58:07;;;;;;;;;38.00;32.00;;;;;6.59;56.15;99348.25;5106388;28;9002;-79
2023/01/31 06:00:38;;;;;;;;;33.25;27.50;;;;;6.13;57.76;99360.59;5106275;28;8887;-80
2023/01/31 06:03:07;;;;;;;;;36.80;29.40;;;;;6.43;57.49;99360.13;5109057;28;8881;-76
2023/01/31 06:05:36;;;;;;;;;35.60;29.00;;;;;6.20;57.55;99362.44;5107701;28;8869;-78
2023/01/31 06:08:05;;;;;;;;;27.00;25.00;;;;;6.37;56.88;99361.75;5090434;28;8975;-77
2023/01/31 06:10:34;;;;;;;;;30.00;26.25;;;;;6.37;57.11;99369.53;5092230;28;8847;-77
2023/01/31 06:13:03;;;;;;;;;32.00;29.00;;;;;6.13;58.01;99373.53;5123570;27;8923;-79
2023/01/31 06:15:31;;;;;;;;;28.80;25.00;;;;;6.16;57.19;99371.00;5093151;27;8861;-78
2023/01/31 06:18:01;;;;;;;;;28.25;27.00;;;;;6.48;56.68;99369.69;5128698;27;8862;-79
2023/01/31 06:20:30;;;;;;;;;33.00;30.25;;;;;6.49;56.60;99364.53;5127298;27;8877;-78
2023/01/31 06:23:00;;;;;;;;;33.00;27.50;;;;;6.61;55.18;99367.25;5127277;27;8854;-78
2023/01/31 06:25:29;;;;;;;;;31.00;27.00;;;;;6.94;54.87;99370.25;5110167;27;8942;-79
2023/01/31 06:27:59;;;;;;;;;33.20;30.00;;;;;6.87;54.55;99373.63;5097816;28;9661;-79
2023/01/31 06:30:28;;;;;;;;;35.00;31.60;;;;;6.90;54.19;99368.47;5105036;27;8854;-78
2023/01/31 06:33:01;;;;;;;;;30.40;28.60;;;;;7.18;53.45;99380.91;5075692;27;8858;-81
2023/01/31 06:35:32;;;;;;;;;30.20;26.00;;;;;6.56;55.38;99371.53;5128323;27;8834;-77
2023/01/31 06:38:01;;;;;;;;;33.75;29.25;;;;;6.47;55.39;99386.09;5113647;27;8845;-77
2023/01/31 06:40:30;;;;;;;;;33.00;26.50;;;;;6.92;54.84;99385.78;5090737;28;8940;-77
2023/01/31 06:42:59;;;;;;;;;30.00;28.60;;;;;6.32;55.94;99399.69;5091238;28;8849;-80
2023/01/31 06:45:29;;;;;;;;;24.00;22.20;;;;;6.70;55.27;99396.75;5107876;28;8929;-78
2023/01/31 06:47:58;;;;;;;;;20.20;18.20;;;;;6.62;54.10;99387.16;5107461;28;8845;-81
2023/01/31 06:50:28;;;;;;;;;29.00;27.80;;;;;6.81;54.25;99388.25;5109041;28;8903;-78
2023/01/31 06:52:58;;;;;;;;;40.00;31.60;;;;;6.16;55.38;99396.91;5127122;27;8854;-78
2023/01/31 06:55:27;;;;;;;;;26.00;23.00;;;;;6.29;55.68;99407.41;5128849;27;8854;-79
2023/01/31 06:57:55;;;;;;;;;31.60;27.20;;;;;6.16;56.54;99415.00;5093790;27;8861;-80
2023/01/31 07:00:24;;;;;;;;;30.50;28.25;;;;;6.53;55.45;99402.56;5126920;27;8831;-77
2023/01/31 07:02:54;;;;;;;;;25.80;25.40;;;;;6.56;55.60;99407.81;5106262;28;8847;-78
2023/01/31 07:05:24;;;;;;;;;20.75;20.75;;;;;6.38;55.36;99410.13;5109327;28;8896;-77
2023/01/31 07:07:54;;;;;;;;;29.50;27.50;;;;;6.51;55.54;99414.63;5109554;28;8903;-76
2023/01/31 07:10:23;;;;;;;;;28.75;27.75;;;;;6.77;54.20;99416.72;5107654;27;8853;-74
2023/01/31 07:12:51;;;;;;;;;25.80;23.40;;;;;6.99;54.15;99410.94;5106220;28;8902;-77
2023/01/31 07:15:21;;;;;;;;;28.00;26.75;;;;;7.18;53.30;99421.50;5108268;28;8917;-74
2023/01/31 07:17:50;;;;;;;;;29.50;28.50;;;;;7.32;52.63;99430.31;5074407;28;8961;-74
2023/01/31 07:20:19;;;;;;;;;29.40;26.40;;;;;6.58;54.83;99434.59;5098185;28;8839;-74
2023/01/31 07:22:55;;;;;;;;;23.40;19.20;;;;;6.42;55.83;99422.28;5104467;28;8860;-76
2023/01/31 07:25:25;;;;;;;;;26.40;25.00;;;;;6.13;56.13;99446.03;5040842;28;8854;-74
2023/01/31 07:27:53;;;;;;;;;22.20;21.20;;;;;6.44;54.75;99436.13;5084955;28;8846;-73
2023/01/31 07:30:23;;;;;;;;;31.00;28.50;;;;;6.20;56.12;99440.09;5034975;28;8841;-74
2023/01/31 07:32:51;;;;;;;;;26.00;22.80;;;;;6.59;54.75;99441.50;5103844;28;9590;-72
2023/01/31 07:35:21;;;;;;;;;24.80;24.20;;;;;6.12;56.60;99438.22;5088323;28;8844;-74
2023/01/31 07:37:52;;;;;;;;;20.60;17.20;;;;;5.90;56.84;99444.72;5061401;28;8897;-76
2023/01/31 07:40:22;;;;;;;;;19.50;17.75;;;;;6.05;57.17;99442.44;5103971;28;8848;-74
2023/01/31 07:43:16;;;;;;;;;29.25;27.00;;;;;6.25;56.97;99453.09;5065679;28;8878;-73
2023/01/31 07:45:45;;;;;;;;;28.20;24.40;;;;;6.53;55.76;99456.97;5060433;28;8925;-76
2023/01/31 07:48:14;;;;;;;;;30.75;26.50;;;;;6.40;56.54;99445.56;5097257;28;8852;-75
2023/01/31 07:50:43;;;;;;;;;34.25;32.25;;;;;6.45;55.62;99453.41;5074849;27;8830;-74
2023/01/31 07:53:11;;;;;;;;;22.20;20.60;;;;;6.49;55.41;99452.59;5117146;27;8853;-76
2023/01/31 07:55:46;;;;;;;;;26.25;24.25;;;;;6.78;54.56;99453.00;5107458;28;8837;-76
2023/01/31 07:58:16;;;;;;;;;26.50;25.00;;;;;6.57;55.89;99457.88;5118255;27;8878;-73
2023/01/31 08:03:35;;;;;;;;;24.20;23.80;;;;;7.04;54.69;99452.47;5077508;28;8988;-74
2023/01/31 08:06:09;;;;;;;;;21.80;17.20;;;;;6.74;55.10;99455.53;5104336;28;8856;-73
2023/01/31 08:08:38;;;;;;;;;27.00;19.20;;;;;6.41;55.82;99465.44;5104834;28;8896;-76
2023/01/31 08:11:09;;;;;;;;;27.00;23.75;;;;;6.52;55.73;99472.50;5104519;28;8856;-74
2023/01/31 08:13:38;;;;;;;;;26.75;22.50;;;;;6.16;56.86;99471.06;5091902;28;8849;-75
2023/01/31 08:16:09;;;;;;;;;23.00;20.40;;;;;6.10;57.19;99476.16;5091899;28;8875;-76
2023/01/31 08:18:38;;;;;;;;;28.50;23.25;;;;;5.85;57.83;99484.34;5109523;28;8848;-74
2023/01/31 08:21:08;;;;;;;;;21.60;20.80;;;;;6.14;57.46;99475.38;5108746;28;8841;-73
2023/01/31 08:23:38;;;;;;;;;21.75;19.75;;;;;6.16;56.96;99487.50;5091828;28;8841;-76
2023/01/31 08:26:11;;;;;;;;;23.20;20.20;;;;;6.15;56.75;99480.56;5091662;28;9008;-73
2023/01/31 08:28:40;;;;;;;;;23.50;22.75;;;;;6.30;56.93;99477.34;5091398;28;8865;-76
2023/01/31 08:31:13;;;;;;;;;18.00;16.80;;;;;5.99;57.61;99479.47;5108598;28;8829;-74
2023/01/31 08:33:42;;;;;;;;;19.00;15.00;;;;;5.91;57.87;99486.16;5091625;28;8849;-75
2023/01/31 08:36:12;;;;;;;;;18.80;18.40;;;;;5.97;57.94;99486.34;5108127;28;8914;-73
2023/01/31 08:38:41;;;;;;;;;16.80;15.60;;;;;6.12;57.73;99480.50;5090677;28;8894;-73
2023/01/31 08:41:12;;;;;;;;;13.60;12.00;;;;;6.15;57.79;99488.34;5072495;28;8841;-77
2023/01/31 08:43:41;;;;;;;;;20.00;15.00;;;;;6.34;57.36;99493.81;5089230;28;8942;-78
2023/01/31 08:46:25;;;;;;;;;16.40;14.80;;;;;6.38;57.47;99493.00;5088888;28;10152;-74
2023/01/31 08:48:54;;;;;;;;;12.80;12.80;;;;;6.68;56.49;99495.19;5038000;28;8853;-76
2023/01/31 08:51:23;;;;;;;;;11.60;11.60;;;;;6.64;56.62;99493.41;5070490;28;8845;-75
2023/01/31 08:53:52;;;;;;;;;12.40;11.60;;;;;6.79;56.13;99491.03;5087171;28;8865;-76
2023/01/31 08:56:24;;;;;;;;;14.80;12.40;;;;;6.88;55.00;99498.06;5054030;28;8869;-76
2023/01/31 08:58:54;;;;;;;;;16.60;13.80;;;;;6.84;55.89;99498.84;5070608;28;8921;-75
2023/01/31 09:01:24;;;;;;;;;12.60;11.60;;;;;6.90;55.11;99504.13;5037599;28;8911;-74
2023/01/31 09:03:55;;;;;;;;;11.00;11.00;;;;;6.62;55.30;99519.28;5087400;28;8834;-74
2023/01/31 09:06:27;;;;;;;;;19.40;19.40;;;;;6.92;55.29;99514.50;5069966;28;9056;-76
2023/01/31 09:08:57;;;;;;;;;9.80;9.80;;;;;6.86;55.04;99506.66;5087155;28;8845;-76
2023/01/31 09:11:29;;;;;;;;;11.00;9.40;;;;;6.54;56.12;99510.53;5058075;28;8867;-75
2023/01/31 09:13:59;;;;;;;;;14.40;9.60;;;;;6.71;55.91;99499.53;5108075;28;8851;-77
2023/01/31 09:16:28;;;;;;;;;13.60;13.60;;;;;6.96;55.14;99503.34;5107847;28;8956;-77
2023/01/31 09:18:57;;;;;;;;;13.60;10.60;;;;;6.59;54.94;99510.59;5090586;28;8871;-76
2023/01/31 09:21:26;;;;;;;;;9.40;9.40;;;;;6.46;55.14;99509.53;5077444;27;8862;-75
2023/01/31 09:23:57;;;;;;;;;9.00;8.80;;;;;6.67;55.00;99508.13;5150806;27;8861;-74
2023/01/31 09:26:29;;;;;;;;;9.00;9.00;;;;;6.64;55.25;99508.97;5151252;27;8843;-78
2023/01/31 09:29:00;;;;;;;;;7.80;7.80;;;;;6.79;55.33;99518.69;5097478;27;8931;-76
2023/01/31 09:31:30;;;;;;;;;11.20;10.80;;;;;7.05;54.10;99506.06;5132802;27;8975;-75
2023/01/31 09:33:59;;;;;;;;;18.20;13.00;;;;;7.22;53.50;99514.03;5132883;27;8935;-77
2023/01/31 09:36:29;;;;;;;;;17.00;17.00;;;;;7.06;53.68;99520.75;5132749;27;8859;-74
2023/01/31 09:38:58;;;;;;;;;14.20;12.20;;;;;7.21;53.63;99526.13;5132487;27;8927;-74
2023/01/31 09:41:35;;;;;;;;;15.20;12.40;;;;;7.00;53.79;99524.13;5115350;27;8874;-73
2023/01/31 09:44:11;;;;;;;;;10.60;9.60;;;;;6.85;54.36;99523.06;5150782;27;8873;-74
2023/01/31 09:46:45;;;;;;;;;9.40;9.40;;;;;6.77;53.71;99499.63;5086264;28;8908;-74
2023/01/31 09:49:21;;;;;;;;;12.40;12.00;;;;;7.21;53.60;99515.75;5069405;28;8966;-72
2023/01/31 09:51:55;;;;;;;;;12.60;12.60;;;;;7.48;52.19;99498.78;5086520;28;8916;-75
2023/01/31 09:54:29;;;;;;;;;8.40;7.60;;;;;7.66;51.28;99510.25;5069369;28;8869;-79
2023/01/31 09:57:16;;;;;;;;;7.20;7.20;;;;;7.63;49.93;99508.47;5069464;28;8968;-75
2023/01/31 09:59:50;;;;;;;;;10.80;7.60;;;;;7.48;50.63;99514.34;5019690;28;8846;-75
2023/01/31 10:02:42;;;;;;;;;9.00;8.40;;;;;7.40;51.73;99527.22;5052598;28;8858;-75
2023/01/31 10:05:24;;;;;;;;;10.20;9.60;;;;;6.92;53.06;99524.88;5047439;28;8848;-74
2023/01/31 10:08:03;;;;;;;;;5.00;4.60;;;;;6.82;53.54;99537.72;4996754;28;8846;-74
2023/01/31 10:10:37;;;;;;;;;12.00;10.60;;;;;7.18;52.44;99549.47;5029029;28;8834;-76
2023/01/31 10:13:17;;;;;;;;;11.00;10.60;;;;;6.77;53.20;99538.50;5029070;28;8846;-77
2023/01/31 10:15:51;;;;;;;;;8.20;6.20;;;;;6.69;53.44;99535.81;5029039;28;8866;-73
2023/01/31 10:18:26;;;;;;;;;11.40;8.00;;;;;6.92;53.37;99541.31;5045686;28;8862;-72
2023/01/31 10:21:00;;;;;;;;;8.00;8.00;;;;;6.86;52.70;99538.63;5045614;28;8858;-74
2023/01/31 10:23:39;;;;;;;;;8.80;8.80;;;;;6.94;52.43;99539.63;5032613;28;9019;-73
2023/01/31 10:26:14;;;;;;;;;12.80;8.80;;;;;6.68;53.27;99543.56;5085637;28;8869;-73
2023/01/31 10:28:53;;;;;;;;;10.20;9.80;;;;;7.15;52.81;99536.44;5052805;28;8957;-74
2023/01/31 10:31:31;;;;;;;;;15.40;14.20;;;;;6.94;53.35;99529.25;5054966;28;8838;-77
2023/01/31 10:34:07;;;;;;;;;9.40;9.40;;;;;7.37;52.84;99526.31;5069572;28;8933;-77
2023/01/31 10:36:43;;;;;;;;;13.80;11.60;;;;;6.87;53.64;99534.34;5088541;28;8863;-78
2023/01/31 10:39:22;;;;;;;;;12.80;12.00;;;;;7.05;54.05;99512.94;5106112;28;8851;-76
2023/01/31 10:42:14;;;;;;;;;14.20;12.20;;;;;6.95;54.18;99527.53;5106396;28;8855;-76
2023/01/31 10:44:52;;;;;;;;;9.00;8.00;;;;;7.06;53.25;99544.09;5105516;28;8966;-74
2023/01/31 10:47:27;;;;;;;;;10.00;8.20;;;;;7.07;52.60;99504.38;5105733;28;8871;-79
2023/01/31 10:49:57;;;;;;;;;5.40;5.40;;;;;7.02;52.42;99508.63;5105844;28;8966;-75
2023/01/31 10:52:49;;;;;;;;;6.00;6.00;;;;;7.42;52.67;99509.97;5105483;28;8929;-74
2023/01/31 10:55:58;;;;;;;;;8.60;8.60;;;;;6.93;52.75;99501.56;5122992;27;8859;-77
2023/01/31 10:58:29;;;;;;;;;7.20;7.20;;;;;6.67;53.65;99518.47;5025542;28;8841;-74
2023/01/31 11:01:00;;;;;;;;;6.20;5.00;;;;;6.78;53.21;99528.16;5024810;28;8878;-79
2023/01/31 11:03:29;;;;;;;;;9.00;8.40;;;;;6.76;53.91;99516.88;5025295;28;8887;-74
2023/01/31 11:05:59;;;;;;;;;9.40;8.60;;;;;6.75;54.17;99532.44;5008676;28;9016;-76
2023/01/31 11:08:35;;;;;;;;;8.60;7.40;;;;;6.79;53.97;99518.69;5008622;28;8962;-73
2023/01/31 11:11:07;;;;;;;;;7.60;7.60;;;;;6.68;54.23;99508.16;4992081;28;8849;-76
2023/01/31 11:13:37;;;;;;;;;8.00;8.00;;;;;7.00;52.08;99495.63;5024652;28;8900;-78
2023/01/31 11:16:11;;;;;;;;;11.60;8.40;;;;;7.10;51.97;99496.59;5026013;28;8862;-76
2023/01/31 11:18:46;;;;;;;;;9.80;7.60;;;;;7.13;52.75;99495.78;5028168;28;8869;-74
2023/01/31 11:21:22;;;;;;;;;10.00;9.00;;;;;6.91;53.27;99492.03;5044376;28;9701;-73
2023/01/31 11:23:52;;;;;;;;;8.40;5.20;;;;;6.79;53.24;99539.41;5011477;28;8858;-74
2023/01/31 11:26:31;;;;;;;;;10.20;6.20;;;;;6.72;54.05;99498.69;4962986;28;8908;-78
2023/01/31 11:29:02;;;;;;;;;8.40;6.60;;;;;7.25;53.53;99485.56;5044670;28;8872;-75
2023/01/31 11:31:38;;;;;;;;;12.00;12.00;;;;;7.34;52.54;99485.66;5049331;28;8856;-76
2023/01/31 11:34:21;;;;;;;;;8.80;8.80;;;;;7.34;53.17;99477.03;5048082;28;8898;-72
2023/01/31 11:36:51;;;;;;;;;10.80;7.80;;;;;7.52;51.25;99484.97;5095764;27;8843;-78
2023/01/31 11:39:31;;;;;;;;;14.80;10.80;;;;;7.39;52.28;99488.28;5149539;27;8848;-78
2023/01/31 11:42:11;;;;;;;;;12.80;10.60;;;;;7.16;51.28;99490.63;5149134;27;8966;-76
2023/01/31 11:44:57;;;;;;;;;9.40;8.40;;;;;7.21;50.90;99481.19;5129987;27;8867;-74
2023/01/31 11:47:34;;;;;;;;;13.80;11.20;;;;;7.43;51.10;99479.72;5081112;27;8962;-78
2023/01/31 11:50:04;;;;;;;;;9.00;9.00;;;;;7.31;51.66;99485.63;5109332;28;8845;-75
2023/01/31 11:52:34;;;;;;;;;10.60;8.00;;;;;7.15;51.70;99484.56;5093085;28;8829;-77
2023/01/31 11:55:08;;;;;;;;;13.60;11.40;;;;;7.19;51.47;99477.72;5109338;28;8833;-77
2023/01/31 11:57:39;;;;;;;;;14.60;13.00;;;;;7.02;51.27;99485.28;5109620;28;8960;-75
2023/01/31 12:00:22;;;;;;;;;13.40;10.00;;;;;7.46;50.84;99478.88;5091673;28;8849;-77
2023/01/31 12:03:01;;;;;;;;;13.40;12.20;;;;;7.42;50.88;99478.81;5092649;28;8861;-79
2023/01/31 12:05:37;;;;;;;;;18.40;11.60;;;;;7.53;50.01;99470.31;5075603;28;8853;-76
2023/01/31 12:08:25;;;;;;;;;8.20;5.20;;;;;6.98;50.73;99478.31;5058466;28;9586;-75
2023/01/31 12:10:57;;;;;;;;;16.60;13.80;;;;;7.19;51.21;99483.75;5075154;28;9001;-73
2023/01/31 12:13:27;;;;;;;;;19.40;13.40;;;;;7.00;51.23;99474.88;5075055;28;8825;-75